sensor_id;sensor_type;location;lat;lon;timestamp;P1;durP1;ratioP1;P2;durP2;ratioP2
32214;SDS011;18708;53.124;23.190;2022-09-09T00:00:24;7.18;;;1.60;;
32214;SDS011;18708;53.124;23.190;2022-09-09T00:05:28;4.32;;;1.52;;
32214;SDS011;18708;53.124;23.190;2022-09-09T00:08:21;3.38;;;1.55;;
32214;SDS011;18708;53.124;23.190;2022-09-09T00:10:54;3.42;;;1.65;;
32214;SDS011;18708;53.124;23.190;2022-09-09T00:13:34;1.75;;;1.48;;
32214;SDS011;18708;53.124;23.190;2022-09-09T00:18:55;2.80;;;1.55;;
32214;SDS011;18708;53.124;23.190;2022-09-09T00:21:36;2.65;;;2.10;;
32214;SDS011;18708;53.124;23.190;2022-09-09T00:27:09;4.80;;;1.42;;
32214;SDS011;18708;53.124;23.190;2022-09-09T00:32:58;5.22;;;1.50;;
32214;SDS011;18708;53.124;23.190;2022-09-09T00:38:15;2.63;;;1.17;;
32214;SDS011;18708;53.124;23.190;2022-09-09T00:43:42;3.22;;;1.60;;
32214;SDS011;18708;53.124;23.190;2022-09-09T00:46:21;3.90;;;2.10;;
32214;SDS011;18708;53.124;23.190;2022-09-09T00:49:05;3.22;;;1.60;;
32214;SDS011;18708;53.124;23.190;2022-09-09T00:54:31;1.90;;;1.38;;
32214;SDS011;18708;53.124;23.190;2022-09-09T00:59:57;3.08;;;1.60;;
32214;SDS011;18708;53.124;23.190;2022-09-09T01:05:25;6.70;;;1.88;;
32214;SDS011;18708;53.124;23.190;2022-09-09T01:07:55;3.70;;;1.70;;
32214;SDS011;18708;53.124;23.190;2022-09-09T01:13:04;6.88;;;1.60;;
32214;SDS011;18708;53.124;23.190;2022-09-09T01:15:38;7.95;;;1.73;;
32214;SDS011;18708;53.124;23.190;2022-09-09T01:18:08;2.63;;;1.55;;
32214;SDS011;18708;53.124;23.190;2022-09-09T01:28:35;4.57;;;1.83;;
32214;SDS011;18708;53.124;23.190;2022-09-09T01:31:03;4.25;;;1.95;;
32214;SDS011;18708;53.124;23.190;2022-09-09T01:33:31;2.15;;;1.48;;
32214;SDS011;18708;53.124;23.190;2022-09-09T01:35:59;2.10;;;1.48;;
32214;SDS011;18708;53.124;23.190;2022-09-09T01:38:30;3.17;;;1.52;;
32214;SDS011;18708;53.124;23.190;2022-09-09T01:40:58;1.67;;;1.50;;
32214;SDS011;18708;53.124;23.190;2022-09-09T01:43:24;1.95;;;1.60;;
32214;SDS011;18708;53.124;23.190;2022-09-09T01:45:52;2.70;;;1.42;;
32214;SDS011;18708;53.124;23.190;2022-09-09T01:48:21;5.85;;;1.45;;
32214;SDS011;18708;53.124;23.190;2022-09-09T01:50:48;3.22;;;1.80;;
32214;SDS011;18708;53.124;23.190;2022-09-09T01:53:14;3.17;;;1.83;;
32214;SDS011;18708;53.124;23.190;2022-09-09T01:55:42;3.58;;;1.60;;
32214;SDS011;18708;53.124;23.190;2022-09-09T01:58:57;3.47;;;2.20;;
32214;SDS011;18708;53.124;23.190;2022-09-09T02:10:05;6.05;;;2.42;;
32214;SDS011;18708;53.124;23.190;2022-09-09T02:12:46;5.10;;;2.50;;
32214;SDS011;18708;53.124;23.190;2022-09-09T02:15:23;4.53;;;2.47;;
32214;SDS011;18708;53.124;23.190;2022-09-09T02:17:55;5.80;;;3.15;;
32214;SDS011;18708;53.124;23.190;2022-09-09T02:20:23;3.45;;;2.50;;
32214;SDS011;18708;53.124;23.190;2022-09-09T02:22:51;4.00;;;2.65;;
32214;SDS011;18708;53.124;23.190;2022-09-09T02:25:19;6.55;;;3.10;;
32214;SDS011;18708;53.124;23.190;2022-09-09T02:27:49;3.33;;;2.90;;
32214;SDS011;18708;53.124;23.190;2022-09-09T02:30:19;5.60;;;3.08;;
32214;SDS011;18708;53.124;23.190;2022-09-09T02:32:45;4.47;;;2.90;;
32214;SDS011;18708;53.124;23.190;2022-09-09T02:35:15;5.45;;;3.05;;
32214;SDS011;18708;53.124;23.190;2022-09-09T02:37:44;6.53;;;3.30;;
32214;SDS011;18708;53.124;23.190;2022-09-09T02:40:13;5.50;;;3.20;;
32214;SDS011;18708;53.124;23.190;2022-09-09T02:42:43;8.85;;;3.55;;
32214;SDS011;18708;53.124;23.190;2022-09-09T02:45:11;4.72;;;3.00;;
32214;SDS011;18708;53.124;23.190;2022-09-09T02:50:19;9.05;;;3.13;;
32214;SDS011;18708;53.124;23.190;2022-09-09T02:52:59;7.32;;;3.75;;
32214;SDS011;18708;53.124;23.190;2022-09-09T02:55:35;5.72;;;3.08;;
32214;SDS011;18708;53.124;23.190;2022-09-09T02:58:14;7.15;;;2.95;;
32214;SDS011;18708;53.124;23.190;2022-09-09T03:00:43;8.13;;;3.22;;
32214;SDS011;18708;53.124;23.190;2022-09-09T03:03:10;5.97;;;2.90;;
32214;SDS011;18708;53.124;23.190;2022-09-09T03:05:36;3.72;;;2.78;;
32214;SDS011;18708;53.124;23.190;2022-09-09T03:08:03;4.72;;;3.03;;
32214;SDS011;18708;53.124;23.190;2022-09-09T03:10:30;6.25;;;2.97;;
32214;SDS011;18708;53.124;23.190;2022-09-09T03:12:56;5.88;;;2.90;;
32214;SDS011;18708;53.124;23.190;2022-09-09T03:15:22;5.68;;;3.50;;
32214;SDS011;18708;53.124;23.190;2022-09-09T03:17:47;6.43;;;3.20;;
32214;SDS011;18708;53.124;23.190;2022-09-09T03:20:13;7.60;;;3.30;;
32214;SDS011;18708;53.124;23.190;2022-09-09T03:22:39;4.07;;;3.03;;
32214;SDS011;18708;53.124;23.190;2022-09-09T03:25:05;4.45;;;3.20;;
32214;SDS011;18708;53.124;23.190;2022-09-09T03:27:31;5.28;;;2.67;;
32214;SDS011;18708;53.124;23.190;2022-09-09T03:29:57;4.88;;;2.72;;
32214;SDS011;18708;53.124;23.190;2022-09-09T03:32:23;8.05;;;2.88;;
32214;SDS011;18708;53.124;23.190;2022-09-09T03:34:50;4.80;;;2.90;;
32214;SDS011;18708;53.124;23.190;2022-09-09T03:37:17;4.78;;;2.83;;
32214;SDS011;18708;53.124;23.190;2022-09-09T03:39:43;3.60;;;2.80;;
32214;SDS011;18708;53.124;23.190;2022-09-09T03:42:11;10.48;;;5.15;;
32214;SDS011;18708;53.124;23.190;2022-09-09T03:44:39;35.55;;;16.45;;
32214;SDS011;18708;53.124;23.190;2022-09-09T03:47:07;16.50;;;10.05;;
32214;SDS011;18708;53.124;23.190;2022-09-09T03:49:33;14.45;;;9.25;;
32214;SDS011;18708;53.124;23.190;2022-09-09T03:51:58;12.07;;;8.63;;
32214;SDS011;18708;53.124;23.190;2022-09-09T03:54:26;11.23;;;8.20;;
32214;SDS011;18708;53.124;23.190;2022-09-09T03:56:52;11.95;;;9.45;;
32214;SDS011;18708;53.124;23.190;2022-09-09T03:59:18;7.68;;;6.03;;
32214;SDS011;18708;53.124;23.190;2022-09-09T04:01:45;9.23;;;6.65;;
32214;SDS011;18708;53.124;23.190;2022-09-09T04:04:12;6.40;;;2.88;;
32214;SDS011;18708;53.124;23.190;2022-09-09T04:06:38;5.15;;;2.65;;
32214;SDS011;18708;53.124;23.190;2022-09-09T04:09:03;7.47;;;3.05;;
32214;SDS011;18708;53.124;23.190;2022-09-09T04:11:29;5.40;;;2.70;;
32214;SDS011;18708;53.124;23.190;2022-09-09T04:13:55;3.08;;;2.50;;
32214;SDS011;18708;53.124;23.190;2022-09-09T04:16:20;4.57;;;3.17;;
32214;SDS011;18708;53.124;23.190;2022-09-09T04:18:46;4.18;;;2.72;;
32214;SDS011;18708;53.124;23.190;2022-09-09T04:21:12;5.28;;;3.03;;
32214;SDS011;18708;53.124;23.190;2022-09-09T04:23:38;3.53;;;3.05;;
32214;SDS011;18708;53.124;23.190;2022-09-09T04:26:04;4.72;;;2.92;;
32214;SDS011;18708;53.124;23.190;2022-09-09T04:28:31;6.63;;;3.00;;
32214;SDS011;18708;53.124;23.190;2022-09-09T04:31:06;4.72;;;3.30;;
32214;SDS011;18708;53.124;23.190;2022-09-09T04:33:34;7.15;;;3.30;;
32214;SDS011;18708;53.124;23.190;2022-09-09T04:35:59;6.80;;;3.72;;
32214;SDS011;18708;53.124;23.190;2022-09-09T04:38:25;4.97;;;3.10;;
32214;SDS011;18708;53.124;23.190;2022-09-09T04:40:51;5.20;;;3.20;;
32214;SDS011;18708;53.124;23.190;2022-09-09T04:43:18;5.15;;;3.10;;
32214;SDS011;18708;53.124;23.190;2022-09-09T04:45:48;6.30;;;2.85;;
32214;SDS011;18708;53.124;23.190;2022-09-09T04:48:16;7.43;;;3.50;;
32214;SDS011;18708;53.124;23.190;2022-09-09T04:50:42;5.03;;;3.60;;
32214;SDS011;18708;53.124;23.190;2022-09-09T04:53:08;7.38;;;4.85;;
32214;SDS011;18708;53.124;23.190;2022-09-09T04:55:34;7.53;;;4.00;;
32214;SDS011;18708;53.124;23.190;2022-09-09T04:58:04;9.88;;;4.13;;
32214;SDS011;18708;53.124;23.190;2022-09-09T05:00:30;13.57;;;4.10;;
32214;SDS011;18708;53.124;23.190;2022-09-09T05:02:57;6.78;;;3.60;;
32214;SDS011;18708;53.124;23.190;2022-09-09T05:05:23;7.03;;;3.97;;
32214;SDS011;18708;53.124;23.190;2022-09-09T05:07:48;7.38;;;3.22;;
32214;SDS011;18708;53.124;23.190;2022-09-09T05:10:14;5.82;;;3.70;;
32214;SDS011;18708;53.124;23.190;2022-09-09T05:12:41;7.85;;;3.53;;
32214;SDS011;18708;53.124;23.190;2022-09-09T05:15:07;4.45;;;3.20;;
32214;SDS011;18708;53.124;23.190;2022-09-09T05:17:33;4.25;;;3.40;;
32214;SDS011;18708;53.124;23.190;2022-09-09T05:19:59;7.25;;;3.55;;
32214;SDS011;18708;53.124;23.190;2022-09-09T05:22:24;6.22;;;2.72;;
32214;SDS011;18708;53.124;23.190;2022-09-09T05:24:51;11.52;;;3.42;;
32214;SDS011;18708;53.124;23.190;2022-09-09T05:27:19;5.88;;;3.90;;
32214;SDS011;18708;53.124;23.190;2022-09-09T05:29:45;7.10;;;4.22;;
32214;SDS011;18708;53.124;23.190;2022-09-09T05:32:11;5.03;;;3.47;;
32214;SDS011;18708;53.124;23.190;2022-09-09T05:34:38;11.70;;;3.83;;
32214;SDS011;18708;53.124;23.190;2022-09-09T05:37:04;7.65;;;3.88;;
32214;SDS011;18708;53.124;23.190;2022-09-09T05:39:32;10.52;;;4.30;;
32214;SDS011;18708;53.124;23.190;2022-09-09T05:41:58;7.22;;;3.90;;
32214;SDS011;18708;53.124;23.190;2022-09-09T05:44:24;8.73;;;4.22;;
32214;SDS011;18708;53.124;23.190;2022-09-09T05:46:52;9.50;;;4.90;;
32214;SDS011;18708;53.124;23.190;2022-09-09T05:49:19;6.13;;;3.72;;
32214;SDS011;18708;53.124;23.190;2022-09-09T05:51:45;7.50;;;4.72;;
32214;SDS011;18708;53.124;23.190;2022-09-09T05:54:12;8.95;;;4.45;;
32214;SDS011;18708;53.124;23.190;2022-09-09T05:56:40;6.18;;;3.90;;
32214;SDS011;18708;53.124;23.190;2022-09-09T05:59:06;9.65;;;5.28;;
32214;SDS011;18708;53.124;23.190;2022-09-09T06:01:33;9.75;;;4.70;;
32214;SDS011;18708;53.124;23.190;2022-09-09T06:04:01;10.77;;;4.60;;
32214;SDS011;18708;53.124;23.190;2022-09-09T06:06:30;11.27;;;4.80;;
32214;SDS011;18708;53.124;23.190;2022-09-09T06:08:57;8.23;;;4.35;;
32214;SDS011;18708;53.124;23.190;2022-09-09T06:11:24;11.25;;;4.97;;
32214;SDS011;18708;53.124;23.190;2022-09-09T06:13:51;8.32;;;4.55;;
32214;SDS011;18708;53.124;23.190;2022-09-09T06:16:19;8.23;;;4.90;;
32214;SDS011;18708;53.124;23.190;2022-09-09T06:18:50;8.68;;;4.85;;
32214;SDS011;18708;53.124;23.190;2022-09-09T06:21:17;10.18;;;4.90;;
32214;SDS011;18708;53.124;23.190;2022-09-09T06:23:45;9.00;;;5.05;;
32214;SDS011;18708;53.124;23.190;2022-09-09T06:26:13;10.73;;;4.88;;
32214;SDS011;18708;53.124;23.190;2022-09-09T06:28:42;8.68;;;5.50;;
32214;SDS011;18708;53.124;23.190;2022-09-09T06:31:09;11.45;;;5.70;;
32214;SDS011;18708;53.124;23.190;2022-09-09T06:33:37;12.73;;;6.82;;
32214;SDS011;18708;53.124;23.190;2022-09-09T06:36:06;10.90;;;6.40;;
32214;SDS011;18708;53.124;23.190;2022-09-09T06:38:35;10.63;;;5.82;;
32214;SDS011;18708;53.124;23.190;2022-09-09T06:41:00;12.73;;;5.70;;
32214;SDS011;18708;53.124;23.190;2022-09-09T06:43:26;8.35;;;5.25;;
32214;SDS011;18708;53.124;23.190;2022-09-09T06:48:40;9.98;;;5.55;;
32214;SDS011;18708;53.124;23.190;2022-09-09T06:51:10;14.32;;;7.10;;
32214;SDS011;18708;53.124;23.190;2022-09-09T06:53:38;16.17;;;7.45;;
32214;SDS011;18708;53.124;23.190;2022-09-09T06:56:21;13.30;;;6.28;;
32214;SDS011;18708;53.124;23.190;2022-09-09T06:58:49;13.82;;;7.43;;
32214;SDS011;18708;53.124;23.190;2022-09-09T07:01:18;15.80;;;8.02;;
32214;SDS011;18708;53.124;23.190;2022-09-09T07:03:46;12.18;;;7.03;;
32214;SDS011;18708;53.124;23.190;2022-09-09T07:06:14;17.70;;;8.18;;
32214;SDS011;18708;53.124;23.190;2022-09-09T07:08:42;14.00;;;7.55;;
32214;SDS011;18708;53.124;23.190;2022-09-09T07:11:09;16.42;;;8.95;;
32214;SDS011;18708;53.124;23.190;2022-09-09T07:13:36;20.73;;;9.13;;
32214;SDS011;18708;53.124;23.190;2022-09-09T07:16:06;13.43;;;7.82;;
32214;SDS011;18708;53.124;23.190;2022-09-09T07:18:33;19.65;;;9.27;;
32214;SDS011;18708;53.124;23.190;2022-09-09T07:20:59;19.52;;;9.10;;
32214;SDS011;18708;53.124;23.190;2022-09-09T07:23:26;14.38;;;7.88;;
32214;SDS011;18708;53.124;23.190;2022-09-09T07:25:51;14.45;;;8.73;;
32214;SDS011;18708;53.124;23.190;2022-09-09T07:28:18;17.38;;;8.23;;
32214;SDS011;18708;53.124;23.190;2022-09-09T07:30:52;17.48;;;9.50;;
32214;SDS011;18708;53.124;23.190;2022-09-09T07:33:19;16.55;;;9.75;;
32214;SDS011;18708;53.124;23.190;2022-09-09T07:35:45;16.85;;;9.35;;
32214;SDS011;18708;53.124;23.190;2022-09-09T07:38:11;17.25;;;10.60;;
32214;SDS011;18708;53.124;23.190;2022-09-09T07:40:36;19.60;;;9.93;;
32214;SDS011;18708;53.124;23.190;2022-09-09T07:43:02;16.98;;;9.70;;
32214;SDS011;18708;53.124;23.190;2022-09-09T07:45:28;18.80;;;9.98;;
32214;SDS011;18708;53.124;23.190;2022-09-09T07:47:54;15.13;;;9.02;;
32214;SDS011;18708;53.124;23.190;2022-09-09T07:50:22;12.05;;;9.10;;
32214;SDS011;18708;53.124;23.190;2022-09-09T07:52:48;21.10;;;10.18;;
32214;SDS011;18708;53.124;23.190;2022-09-09T07:55:15;18.05;;;8.60;;
32214;SDS011;18708;53.124;23.190;2022-09-09T07:57:41;17.70;;;9.15;;
32214;SDS011;18708;53.124;23.190;2022-09-09T08:00:07;17.23;;;9.27;;
32214;SDS011;18708;53.124;23.190;2022-09-09T08:02:33;17.52;;;10.18;;
32214;SDS011;18708;53.124;23.190;2022-09-09T08:04:59;17.38;;;10.10;;
32214;SDS011;18708;53.124;23.190;2022-09-09T08:07:24;19.98;;;10.85;;
32214;SDS011;18708;53.124;23.190;2022-09-09T08:09:51;18.95;;;9.88;;
32214;SDS011;18708;53.124;23.190;2022-09-09T08:12:16;22.23;;;11.13;;
32214;SDS011;18708;53.124;23.190;2022-09-09T08:14:43;19.10;;;11.30;;
32214;SDS011;18708;53.124;23.190;2022-09-09T08:17:08;22.60;;;12.32;;
32214;SDS011;18708;53.124;23.190;2022-09-09T08:19:34;21.48;;;12.40;;
32214;SDS011;18708;53.124;23.190;2022-09-09T08:22:01;18.65;;;11.77;;
32214;SDS011;18708;53.124;23.190;2022-09-09T08:24:27;37.35;;;13.40;;
32214;SDS011;18708;53.124;23.190;2022-09-09T08:26:53;25.95;;;13.45;;
32214;SDS011;18708;53.124;23.190;2022-09-09T08:29:19;24.05;;;13.70;;
32214;SDS011;18708;53.124;23.190;2022-09-09T08:31:46;25.92;;;12.38;;
32214;SDS011;18708;53.124;23.190;2022-09-09T08:34:14;21.67;;;12.98;;
32214;SDS011;18708;53.124;23.190;2022-09-09T08:36:41;23.90;;;13.75;;
32214;SDS011;18708;53.124;23.190;2022-09-09T08:39:09;21.95;;;13.05;;
32214;SDS011;18708;53.124;23.190;2022-09-09T08:52:19;24.08;;;14.02;;
32214;SDS011;18708;53.124;23.190;2022-09-09T08:55:10;32.28;;;16.52;;
32214;SDS011;18708;53.124;23.190;2022-09-09T08:57:38;39.50;;;21.23;;
32214;SDS011;18708;53.124;23.190;2022-09-09T09:00:04;27.50;;;16.17;;
32214;SDS011;18708;53.124;23.190;2022-09-09T09:11:11;23.23;;;14.40;;
32214;SDS011;18708;53.124;23.190;2022-09-09T09:13:43;27.02;;;15.77;;
32214;SDS011;18708;53.124;23.190;2022-09-09T09:16:13;25.23;;;15.20;;
32214;SDS011;18708;53.124;23.190;2022-09-09T09:18:47;26.58;;;15.45;;
32214;SDS011;18708;53.124;23.190;2022-09-09T09:21:16;23.05;;;14.73;;
32214;SDS011;18708;53.124;23.190;2022-09-09T09:23:56;21.75;;;14.68;;
32214;SDS011;18708;53.124;23.190;2022-09-09T09:26:25;20.45;;;14.45;;
32214;SDS011;18708;53.124;23.190;2022-09-09T09:29:00;23.85;;;14.60;;
32214;SDS011;18708;53.124;23.190;2022-09-09T09:31:42;24.45;;;15.50;;
32214;SDS011;18708;53.124;23.190;2022-09-09T09:34:28;24.38;;;14.75;;
32214;SDS011;18708;53.124;23.190;2022-09-09T09:39:26;22.45;;;14.27;;
32214;SDS011;18708;53.124;23.190;2022-09-09T09:41:55;24.05;;;15.15;;
32214;SDS011;18708;53.124;23.190;2022-09-09T09:46:53;24.23;;;15.45;;
32214;SDS011;18708;53.124;23.190;2022-09-09T09:49:38;22.60;;;14.13;;
32214;SDS011;18708;53.124;23.190;2022-09-09T09:52:05;28.98;;;16.10;;
32214;SDS011;18708;53.124;23.190;2022-09-09T09:54:33;22.73;;;14.43;;
32214;SDS011;18708;53.124;23.190;2022-09-09T09:57:13;24.23;;;15.05;;
32214;SDS011;18708;53.124;23.190;2022-09-09T09:59:41;23.30;;;14.05;;
32214;SDS011;18708;53.124;23.190;2022-09-09T10:02:20;21.02;;;14.38;;
32214;SDS011;18708;53.124;23.190;2022-09-09T10:05:13;21.48;;;14.63;;
32214;SDS011;18708;53.124;23.190;2022-09-09T10:07:45;21.38;;;15.25;;
32214;SDS011;18708;53.124;23.190;2022-09-09T10:10:21;25.30;;;15.27;;
32214;SDS011;18708;53.124;23.190;2022-09-09T10:13:02;24.80;;;15.00;;
32214;SDS011;18708;53.124;23.190;2022-09-09T10:45:47;29.50;;;17.63;;
32214;SDS011;18708;53.124;23.190;2022-09-09T10:51:23;21.40;;;15.30;;
32214;SDS011;18708;53.124;23.190;2022-09-09T10:57:10;26.98;;;15.32;;
32214;SDS011;18708;53.124;23.190;2022-09-09T10:59:43;23.77;;;14.43;;
32214;SDS011;18708;53.124;23.190;2022-09-09T11:07:40;18.90;;;13.68;;
32214;SDS011;18708;53.124;23.190;2022-09-09T11:10:21;23.63;;;13.85;;
32214;SDS011;18708;53.124;23.190;2022-09-09T11:12:59;19.83;;;14.20;;
32214;SDS011;18708;53.124;23.190;2022-09-09T11:15:31;21.33;;;13.77;;
32214;SDS011;18708;53.124;23.190;2022-09-09T11:18:05;21.92;;;13.55;;
32214;SDS011;18708;53.124;23.190;2022-09-09T11:20:38;24.92;;;13.68;;
32214;SDS011;18708;53.124;23.190;2022-09-09T11:23:17;22.42;;;14.52;;
32214;SDS011;18708;53.124;23.190;2022-09-09T11:25:53;26.80;;;17.88;;
32214;SDS011;18708;53.124;23.190;2022-09-09T11:33:58;19.50;;;13.10;;
32214;SDS011;18708;53.124;23.190;2022-09-09T11:37:07;21.40;;;11.65;;
32214;SDS011;18708;53.124;23.190;2022-09-09T11:39:47;20.13;;;12.40;;
32214;SDS011;18708;53.124;23.190;2022-09-09T11:42:34;19.13;;;12.98;;
32214;SDS011;18708;53.124;23.190;2022-09-09T11:45:34;23.10;;;15.57;;
32214;SDS011;18708;53.124;23.190;2022-09-09T11:47:58;19.13;;;12.85;;
32214;SDS011;18708;53.124;23.190;2022-09-09T11:52:50;22.40;;;13.05;;
32214;SDS011;18708;53.124;23.190;2022-09-09T11:55:29;19.73;;;12.45;;
32214;SDS011;18708;53.124;23.190;2022-09-09T11:58:01;21.42;;;12.73;;
32214;SDS011;18708;53.124;23.190;2022-09-09T12:03:32;20.13;;;13.55;;
32214;SDS011;18708;53.124;23.190;2022-09-09T12:06:09;18.70;;;13.23;;
32214;SDS011;18708;53.124;23.190;2022-09-09T12:08:46;26.35;;;13.02;;
32214;SDS011;18708;53.124;23.190;2022-09-09T12:11:24;21.42;;;12.82;;
32214;SDS011;18708;53.124;23.190;2022-09-09T12:13:52;21.60;;;11.63;;
32214;SDS011;18708;53.124;23.190;2022-09-09T12:16:36;21.73;;;11.55;;
32214;SDS011;18708;53.124;23.190;2022-09-09T12:24:42;22.77;;;13.05;;
32214;SDS011;18708;53.124;23.190;2022-09-09T12:27:34;21.27;;;11.68;;
32214;SDS011;18708;53.124;23.190;2022-09-09T12:30:11;18.35;;;11.77;;
32214;SDS011;18708;53.124;23.190;2022-09-09T12:32:39;20.08;;;11.65;;
32214;SDS011;18708;53.124;23.190;2022-09-09T12:35:10;18.02;;;12.65;;
32214;SDS011;18708;53.124;23.190;2022-09-09T12:37:46;24.30;;;12.88;;
32214;SDS011;18708;53.124;23.190;2022-09-09T12:40:23;20.50;;;11.77;;
32214;SDS011;18708;53.124;23.190;2022-09-09T12:42:49;19.80;;;10.93;;
32214;SDS011;18708;53.124;23.190;2022-09-09T12:45:19;16.95;;;10.70;;
32214;SDS011;18708;53.124;23.190;2022-09-09T12:50:25;22.00;;;10.10;;
32214;SDS011;18708;53.124;23.190;2022-09-09T12:53:00;20.13;;;10.68;;
32214;SDS011;18708;53.124;23.190;2022-09-09T12:55:32;17.48;;;10.32;;
32214;SDS011;18708;53.124;23.190;2022-09-09T12:58:02;16.90;;;9.85;;
32214;SDS011;18708;53.124;23.190;2022-09-09T13:00:31;20.55;;;10.68;;
32214;SDS011;18708;53.124;23.190;2022-09-09T13:02:59;16.15;;;9.50;;
32214;SDS011;18708;53.124;23.190;2022-09-09T13:05:28;18.95;;;11.30;;
32214;SDS011;18708;53.124;23.190;2022-09-09T13:08:01;16.65;;;10.35;;
32214;SDS011;18708;53.124;23.190;2022-09-09T13:10:34;16.23;;;9.60;;
32214;SDS011;18708;53.124;23.190;2022-09-09T13:13:03;16.92;;;9.60;;
32214;SDS011;18708;53.124;23.190;2022-09-09T13:15:38;22.75;;;10.57;;
32214;SDS011;18708;53.124;23.190;2022-09-09T13:18:05;19.92;;;10.82;;
32214;SDS011;18708;53.124;23.190;2022-09-09T13:20:36;18.63;;;9.98;;
32214;SDS011;18708;53.124;23.190;2022-09-09T13:23:02;17.88;;;10.50;;
32214;SDS011;18708;53.124;23.190;2022-09-09T13:25:28;18.42;;;10.75;;
32214;SDS011;18708;53.124;23.190;2022-09-09T13:28:04;25.17;;;11.05;;
32214;SDS011;18708;53.124;23.190;2022-09-09T13:30:34;20.00;;;11.13;;
32214;SDS011;18708;53.124;23.190;2022-09-09T13:35:35;18.80;;;11.25;;
32214;SDS011;18708;53.124;23.190;2022-09-09T13:38:13;21.05;;;12.43;;
32214;SDS011;18708;53.124;23.190;2022-09-09T13:40:40;17.17;;;12.10;;
32214;SDS011;18708;53.124;23.190;2022-09-09T13:43:24;21.85;;;11.55;;
32214;SDS011;18708;53.124;23.190;2022-09-09T13:45:52;22.27;;;13.07;;
32214;SDS011;18708;53.124;23.190;2022-09-09T13:48:23;25.13;;;12.80;;
32214;SDS011;18708;53.124;23.190;2022-09-09T13:51:02;23.00;;;13.38;;
32214;SDS011;18708;53.124;23.190;2022-09-09T13:53:32;22.48;;;14.45;;
32214;SDS011;18708;53.124;23.190;2022-09-09T13:55:58;19.83;;;12.18;;
32214;SDS011;18708;53.124;23.190;2022-09-09T13:58:25;29.30;;;19.77;;
32214;SDS011;18708;53.124;23.190;2022-09-09T14:00:51;18.52;;;13.18;;
32214;SDS011;18708;53.124;23.190;2022-09-09T14:03:18;25.90;;;14.38;;
32214;SDS011;18708;53.124;23.190;2022-09-09T14:05:44;25.13;;;13.50;;
32214;SDS011;18708;53.124;23.190;2022-09-09T14:08:15;27.88;;;13.73;;
32214;SDS011;18708;53.124;23.190;2022-09-09T14:10:46;24.60;;;12.98;;
32214;SDS011;18708;53.124;23.190;2022-09-09T14:13:12;22.52;;;12.48;;
32214;SDS011;18708;53.124;23.190;2022-09-09T14:15:38;22.17;;;13.35;;
32214;SDS011;18708;53.124;23.190;2022-09-09T14:18:03;20.20;;;11.82;;
32214;SDS011;18708;53.124;23.190;2022-09-09T14:20:29;17.77;;;12.43;;
32214;SDS011;18708;53.124;23.190;2022-09-09T14:22:55;22.13;;;13.70;;
32214;SDS011;18708;53.124;23.190;2022-09-09T14:25:23;22.23;;;13.80;;
32214;SDS011;18708;53.124;23.190;2022-09-09T14:27:48;22.10;;;14.20;;
32214;SDS011;18708;53.124;23.190;2022-09-09T14:30:16;22.83;;;14.23;;
32214;SDS011;18708;53.124;23.190;2022-09-09T14:32:42;26.58;;;14.50;;
32214;SDS011;18708;53.124;23.190;2022-09-09T14:35:08;23.42;;;13.40;;
32214;SDS011;18708;53.124;23.190;2022-09-09T14:37:34;22.63;;;14.60;;
32214;SDS011;18708;53.124;23.190;2022-09-09T14:40:00;22.98;;;13.75;;
32214;SDS011;18708;53.124;23.190;2022-09-09T14:42:26;23.08;;;13.50;;
32214;SDS011;18708;53.124;23.190;2022-09-09T14:44:51;25.77;;;14.50;;
32214;SDS011;18708;53.124;23.190;2022-09-09T14:47:17;26.13;;;14.07;;
32214;SDS011;18708;53.124;23.190;2022-09-09T14:49:43;23.08;;;13.38;;
32214;SDS011;18708;53.124;23.190;2022-09-09T14:52:10;23.40;;;13.45;;
32214;SDS011;18708;53.124;23.190;2022-09-09T14:54:36;26.88;;;12.57;;
32214;SDS011;18708;53.124;23.190;2022-09-09T14:57:02;18.88;;;12.45;;
32214;SDS011;18708;53.124;23.190;2022-09-09T14:59:28;19.73;;;11.75;;
32214;SDS011;18708;53.124;23.190;2022-09-09T15:01:53;24.17;;;12.48;;
32214;SDS011;18708;53.124;23.190;2022-09-09T15:04:19;20.63;;;11.98;;
32214;SDS011;18708;53.124;23.190;2022-09-09T15:06:45;21.27;;;11.52;;
32214;SDS011;18708;53.124;23.190;2022-09-09T15:09:13;20.25;;;11.93;;
32214;SDS011;18708;53.124;23.190;2022-09-09T15:11:39;25.00;;;11.95;;
32214;SDS011;18708;53.124;23.190;2022-09-09T15:14:06;25.33;;;12.02;;
32214;SDS011;18708;53.124;23.190;2022-09-09T15:16:33;21.33;;;12.55;;
32214;SDS011;18708;53.124;23.190;2022-09-09T15:19:00;21.48;;;12.02;;
32214;SDS011;18708;53.124;23.190;2022-09-09T15:21:27;23.98;;;12.43;;
32214;SDS011;18708;53.124;23.190;2022-09-09T15:23:55;22.30;;;11.93;;
32214;SDS011;18708;53.124;23.190;2022-09-09T15:26:21;19.33;;;11.80;;
32214;SDS011;18708;53.124;23.190;2022-09-09T15:28:48;24.00;;;13.15;;
32214;SDS011;18708;53.124;23.190;2022-09-09T15:31:25;25.88;;;14.45;;
32214;SDS011;18708;53.124;23.190;2022-09-09T15:33:54;25.85;;;13.95;;
32214;SDS011;18708;53.124;23.190;2022-09-09T15:36:28;25.67;;;15.35;;
32214;SDS011;18708;53.124;23.190;2022-09-09T15:39:00;24.95;;;14.85;;
32214;SDS011;18708;53.124;23.190;2022-09-09T15:41:27;26.08;;;15.15;;
32214;SDS011;18708;53.124;23.190;2022-09-09T15:43:54;30.55;;;17.58;;
32214;SDS011;18708;53.124;23.190;2022-09-09T15:46:32;22.90;;;14.85;;
32214;SDS011;18708;53.124;23.190;2022-09-09T15:49:12;30.60;;;15.10;;
32214;SDS011;18708;53.124;23.190;2022-09-09T15:51:42;25.08;;;14.90;;
32214;SDS011;18708;53.124;23.190;2022-09-09T15:54:13;24.70;;;14.98;;
32214;SDS011;18708;53.124;23.190;2022-09-09T15:56:42;29.20;;;18.15;;
32214;SDS011;18708;53.124;23.190;2022-09-09T15:59:08;42.05;;;25.42;;
32214;SDS011;18708;53.124;23.190;2022-09-09T16:01:34;39.88;;;25.90;;
32214;SDS011;18708;53.124;23.190;2022-09-09T16:04:00;34.67;;;21.17;;
32214;SDS011;18708;53.124;23.190;2022-09-09T16:06:27;31.05;;;19.08;;
32214;SDS011;18708;53.124;23.190;2022-09-09T16:08:54;29.77;;;17.50;;
32214;SDS011;18708;53.124;23.190;2022-09-09T16:11:25;22.55;;;12.25;;
32214;SDS011;18708;53.124;23.190;2022-09-09T16:13:52;18.95;;;12.70;;
32214;SDS011;18708;53.124;23.190;2022-09-09T16:16:20;17.67;;;12.85;;
32214;SDS011;18708;53.124;23.190;2022-09-09T16:18:53;25.08;;;12.10;;
32214;SDS011;18708;53.124;23.190;2022-09-09T16:21:25;23.52;;;12.10;;
32214;SDS011;18708;53.124;23.190;2022-09-09T16:23:54;19.40;;;11.67;;
32214;SDS011;18708;53.124;23.190;2022-09-09T16:26:21;20.42;;;12.23;;
32214;SDS011;18708;53.124;23.190;2022-09-09T16:28:48;26.05;;;13.35;;
32214;SDS011;18708;53.124;23.190;2022-09-09T16:31:17;21.20;;;12.82;;
32214;SDS011;18708;53.124;23.190;2022-09-09T16:33:46;21.92;;;13.00;;
32214;SDS011;18708;53.124;23.190;2022-09-09T16:36:14;21.08;;;11.77;;
32214;SDS011;18708;53.124;23.190;2022-09-09T16:38:41;18.90;;;9.38;;
32214;SDS011;18708;53.124;23.190;2022-09-09T16:41:08;16.27;;;9.88;;
32214;SDS011;18708;53.124;23.190;2022-09-09T16:43:35;19.35;;;9.45;;
32214;SDS011;18708;53.124;23.190;2022-09-09T16:46:03;19.98;;;10.20;;
32214;SDS011;18708;53.124;23.190;2022-09-09T16:48:37;18.92;;;11.07;;
32214;SDS011;18708;53.124;23.190;2022-09-09T16:51:06;27.15;;;13.57;;
32214;SDS011;18708;53.124;23.190;2022-09-09T16:53:36;20.83;;;12.73;;